Time;durP1;ratioP1;P1;durP2;ratioP2;P2;SDS_P1;SDS_P2;PMS_P1;PMS_P2;Temp;Humidity;BMP_temperature;BMP_pressure;BME280_temperature;BME280_humidity;BME280_pressure;Samples;Min_cycle;Max_cycle;Signal;HPM_P1;HPM_P2
2021/01/14 00:00:23;;;;;;;5.95;1.30;;;;;;;1.20;85.66;101695.47;5058293;28;20047;-64
2021/01/14 00:02:49;;;;;;;4.13;1.20;;;;;;;1.27;85.03;101689.00;5059599;28;20060;-64
2021/01/14 00:05:15;;;;;;;8.60;1.90;;;;;;;1.35;83.46;101688.72;5057653;28;20037;-64
2021/01/14 00:07:42;;;;;;;4.78;1.05;;;;;;;1.35;83.51;101678.97;5057337;28;20055;-64
2021/01/14 00:10:10;;;;;;;5.35;1.20;;;;;;;1.40;83.01;101679.69;5058070;28;20056;-64
2021/01/14 00:12:37;;;;;;;6.55;1.13;;;;;;;1.30;83.41;101672.13;5056474;28;20543;-63
2021/01/14 00:15:06;;;;;;;9.35;1.80;;;;;;;1.43;83.16;101662.78;5056402;28;20636;-64
2021/01/14 00:17:32;;;;;;;4.78;1.08;;;;;;;1.31;83.13;101666.78;5059148;28;20049;-64
2021/01/14 00:19:58;;;;;;;4.40;1.15;;;;;;;1.31;82.17;101674.72;5057828;28;20048;-63
2021/01/14 00:22:24;;;;;;;6.18;1.02;;;;;;;1.31;82.24;101674.72;5056586;28;20052;-64
2021/01/14 00:24:50;;;;;;;4.78;1.17;;;;;;;1.35;82.83;101672.81;5054042;28;20088;-65
2021/01/14 00:27:16;;;;;;;5.25;1.10;;;;;;;1.39;83.08;101674.44;5058598;28;20053;-64
2021/01/14 00:29:42;;;;;;;5.35;1.20;;;;;;;1.42;82.83;101676.13;5058460;28;20053;-64
2021/01/14 00:32:09;;;;;;;6.30;1.42;;;;;;;1.36;83.74;101678.06;5056176;28;20501;-63
2021/01/14 00:34:35;;;;;;;4.47;0.95;;;;;;;1.22;83.91;101675.03;5057416;28;20060;-65
2021/01/14 00:39:45;;;;;;;4.68;1.20;;;;;;;1.22;85.87;101680.34;5057636;28;20060;-64
2021/01/14 00:42:17;;;;;;;5.22;1.30;;;;;;;1.23;86.31;101685.59;5056953;28;20100;-67
2021/01/14 00:44:43;;;;;;;2.65;0.98;;;;;;;1.28;87.18;101680.16;5058511;28;20128;-63
2021/01/14 00:47:10;;;;;;;7.00;1.40;;;;;;;1.30;86.90;101672.97;5057101;28;20063;-63
2021/01/14 00:49:36;;;;;;;5.57;1.13;;;;;;;1.31;87.49;101671.19;5058643;28;20047;-63
2021/01/14 00:52:02;;;;;;;5.68;0.80;;;;;;;1.23;86.79;101682.09;5056827;28;20061;-63
2021/01/14 00:54:28;;;;;;;8.38;1.70;;;;;;;1.01;87.02;101676.69;5056239;28;20041;-63
2021/01/14 00:56:54;;;;;;;8.57;1.27;;;;;;;0.93;87.50;101686.69;5063908;28;20053;-63
2021/01/14 00:59:20;;;;;;;4.80;1.10;;;;;;;0.96;87.74;101678.66;5062083;28;20609;-63
2021/01/14 01:01:46;;;;;;;4.55;1.30;;;;;;;0.96;88.43;101673.34;5061871;28;20072;-64
2021/01/14 01:04:13;;;;;;;6.70;1.00;;;;;;;0.98;88.00;101690.91;5059571;28;20080;-63
2021/01/14 01:06:40;;;;;;;6.20;1.42;;;;;;;0.85;88.52;101692.25;5062149;28;20565;-62
2021/01/14 01:09:08;;;;;;;8.98;1.30;;;;;;;0.84;88.70;101691.41;5061163;28;20428;-64
2021/01/14 01:11:34;;;;;;;7.88;2.00;;;;;;;0.91;88.35;101691.19;5058858;28;20194;-63
2021/01/14 01:14:00;;;;;;;5.05;1.33;;;;;;;0.79;88.57;101698.63;5060965;28;20075;-63
2021/01/14 01:16:26;;;;;;;8.60;1.40;;;;;;;0.64;89.38;101693.88;5060640;28;20047;-63
2021/01/14 01:18:53;;;;;;;3.88;1.13;;;;;;;0.64;89.41;101694.72;5060179;28;20056;-63
2021/01/14 01:21:19;;;;;;;5.82;1.00;;;;;;;0.63;89.57;101693.00;5058401;28;20051;-64
2021/01/14 01:23:45;;;;;;;2.65;1.10;;;;;;;0.54;89.57;101688.00;5059255;28;21699;-63
2021/01/14 01:26:15;;;;;;;7.10;1.25;;;;;;;0.43;90.03;101690.16;5059322;28;20075;-64
2021/01/14 01:28:41;;;;;;;5.68;1.45;;;;;;;0.32;89.81;101694.03;5057794;28;20075;-63
2021/01/14 01:31:09;;;;;;;4.07;0.95;;;;;;;0.36;89.99;101696.56;5056343;28;20098;-63
2021/01/14 01:33:35;;;;;;;1.98;1.25;;;;;;;0.34;90.05;101694.81;5059012;28;20052;-64
2021/01/14 01:36:01;;;;;;;2.70;0.90;;;;;;;0.30;90.24;101703.78;5060675;28;20494;-64
2021/01/14 01:38:27;;;;;;;4.72;1.20;;;;;;;0.32;90.23;101715.22;5057080;28;20185;-64
2021/01/14 01:40:55;;;;;;;3.38;1.00;;;;;;;0.29;90.48;101712.63;5055702;28;20055;-64
2021/01/14 01:43:21;;;;;;;3.78;1.30;;;;;;;0.29;90.61;101717.91;5055609;28;20143;-64
2021/01/14 01:45:47;;;;;;;3.65;1.50;;;;;;;0.28;90.61;101721.50;5055414;28;20067;-65
2021/01/14 01:48:14;;;;;;;2.83;1.00;;;;;;;0.20;91.21;101720.88;5055392;28;20397;-65
2021/01/14 01:50:40;;;;;;;6.18;1.00;;;;;;;0.15;91.55;101728.97;5055978;28;20053;-64
2021/01/14 01:53:06;;;;;;;5.53;1.30;;;;;;;0.11;91.85;101729.97;5054743;28;20513;-64
2021/01/14 01:55:33;;;;;;;2.60;0.90;;;;;;;0.11;91.93;101731.75;5055865;28;20155;-64
2021/01/14 01:57:59;;;;;;;6.45;1.20;;;;;;;0.18;91.89;101733.31;5056491;28;20421;-65
2021/01/14 02:00:25;;;;;;;2.53;0.90;;;;;;;0.23;91.98;101731.38;5054693;28;20659;-63
2021/01/14 02:02:52;;;;;;;7.25;1.30;;;;;;;0.30;92.16;101737.34;5056890;28;20113;-64
2021/01/14 02:05:18;;;;;;;3.13;0.95;;;;;;;0.31;92.10;101739.94;5053596;28;20403;-64
2021/01/14 02:07:52;;;;;;;3.10;0.90;;;;;;;0.41;92.08;101735.19;5056302;28;20067;-64
2021/01/14 02:10:25;;;;;;;9.40;1.10;;;;;;;0.35;91.61;101732.75;5054641;28;20052;-64
2021/01/14 02:13:05;;;;;;;4.60;1.10;;;;;;;0.34;91.88;101739.84;5052750;28;20067;-64
2021/01/14 02:15:32;;;;;;;5.97;1.25;;;;;;;0.42;92.33;101746.69;5052156;28;20056;-65
2021/01/14 02:17:58;;;;;;;3.13;1.25;;;;;;;0.43;92.08;101746.63;5054950;28;20048;-64
2021/01/14 02:20:25;;;;;;;5.28;1.25;;;;;;;0.36;92.23;101752.19;5053781;28;20590;-65
2021/01/14 02:22:57;;;;;;;3.13;0.93;;;;;;;0.31;92.53;101760.25;5053970;28;20051;-65
2021/01/14 02:25:30;;;;;;;3.92;1.25;;;;;;;0.33;92.20;101764.59;5053043;28;20057;-64
2021/01/14 02:27:57;;;;;;;4.25;0.85;;;;;;;0.38;92.34;101763.56;5055021;28;20064;-64
2021/01/14 02:30:24;;;;;;;3.65;1.42;;;;;;;0.29;92.12;101762.94;5054943;28;20075;-64
2021/01/14 02:32:50;;;;;;;4.38;1.00;;;;;;;0.22;92.52;101774.66;5053944;28;20532;-64
2021/01/14 02:35:16;;;;;;;6.43;1.08;;;;;;;0.24;92.94;101769.31;5053790;28;20656;-64
2021/01/14 02:37:42;;;;;;;8.25;1.50;;;;;;;0.20;92.88;101779.13;5055717;28;20052;-64
2021/01/14 02:40:09;;;;;;;4.25;1.50;;;;;;;0.18;93.17;101775.66;5054678;28;20060;-64
2021/01/14 02:42:35;;;;;;;2.35;1.00;;;;;;;0.12;93.12;101782.00;5054524;28;20435;-64
2021/01/14 02:45:02;;;;;;;4.40;1.00;;;;;;;0.08;93.28;101775.06;5054945;28;20055;-64
2021/01/14 02:47:30;;;;;;;2.85;0.82;;;;;;;0.09;93.31;101778.56;5053273;28;20067;-65
2021/01/14 02:50:01;;;;;;;9.23;1.60;;;;;;;0.09;93.37;101786.50;5053367;28;20045;-64
2021/01/14 02:52:28;;;;;;;3.30;1.17;;;;;;;0.16;93.19;101788.06;5053900;28;20052;-64
2021/01/14 02:54:58;;;;;;;8.60;1.20;;;;;;;0.18;93.11;101786.25;5052922;28;20053;-64
2021/01/14 02:57:26;;;;;;;2.35;0.90;;;;;;;0.23;92.80;101773.72;5054503;28;20053;-64
2021/01/14 02:59:53;;;;;;;2.80;0.80;;;;;;;0.20;92.96;101787.06;5054536;28;20092;-64
2021/01/14 03:02:20;;;;;;;2.53;0.80;;;;;;;0.21;92.72;101782.63;5054830;28;20075;-64
2021/01/14 03:04:46;;;;;;;5.57;1.08;;;;;;;0.28;92.59;101785.06;5056422;28;20059;-65
2021/01/14 03:07:12;;;;;;;3.95;0.95;;;;;;;0.29;92.44;101794.72;5053564;28;20052;-64
2021/01/14 03:09:38;;;;;;;1.88;0.80;;;;;;;0.28;92.12;101789.47;5053677;28;20045;-65
2021/01/14 03:12:04;;;;;;;5.30;1.15;;;;;;;0.10;92.57;101789.09;5053642;28;20063;-65
2021/01/14 03:14:30;;;;;;;9.57;1.20;;;;;;;0.09;92.67;101784.75;5054511;28;20061;-63
2021/01/14 03:16:56;;;;;;;4.53;0.88;;;;;;;0.07;92.78;101788.34;5054370;28;20056;-64
2021/01/14 03:19:23;;;;;;;4.20;1.23;;;;;;;-0.07;93.07;101792.25;5054014;28;20056;-64
2021/01/14 03:21:49;;;;;;;7.53;2.25;;;;;;;-0.05;93.20;101806.31;5053819;28;20063;-64
2021/01/14 03:24:15;;;;;;;4.20;0.93;;;;;;;-0.07;93.18;101802.84;5047177;28;20131;-65
2021/01/14 03:26:41;;;;;;;1.88;1.00;;;;;;;-0.15;93.43;101799.53;5052255;28;20060;-64
2021/01/14 03:29:07;;;;;;;8.30;1.52;;;;;;;-0.17;93.43;101800.53;5052412;28;20103;-64
2021/01/14 03:31:33;;;;;;;5.43;1.80;;;;;;;-0.22;93.53;101798.88;5053483;28;20436;-64
2021/01/14 03:33:59;;;;;;;5.88;1.70;;;;;;;-0.24;93.64;101808.59;5050174;28;20049;-64
2021/01/14 03:36:32;;;;;;;6.40;1.73;;;;;;;-0.21;93.56;101807.66;5052969;28;20095;-64
2021/01/14 03:38:59;;;;;;;4.43;1.45;;;;;;;-0.15;93.68;101815.41;5052325;28;20059;-64
2021/01/14 03:41:24;;;;;;;3.67;1.70;;;;;;;-0.24;93.53;101811.25;5052724;28;20060;-65
2021/01/14 03:43:50;;;;;;;6.25;1.80;;;;;;;-0.28;93.72;101804.34;5053142;28;20516;-64
2021/01/14 03:46:20;;;;;;;6.40;1.77;;;;;;;-0.37;93.74;101816.03;5053554;28;20449;-64
2021/01/14 03:48:47;;;;;;;5.20;1.75;;;;;;;-0.40;93.75;101809.94;5052984;28;20126;-63
2021/01/14 03:51:17;;;;;;;3.88;1.80;;;;;;;-0.38;93.86;101811.66;5052269;28;20402;-64
2021/01/14 03:53:44;;;;;;;3.60;1.48;;;;;;;-0.33;93.64;101815.97;5050827;28;20060;-64
2021/01/14 03:56:10;;;;;;;4.20;1.52;;;;;;;-0.25;93.61;101825.41;5052504;28;20082;-64
2021/01/14 03:58:36;;;;;;;4.05;1.50;;;;;;;-0.38;93.73;101819.59;5054489;28;20379;-64
2021/01/14 04:01:03;;;;;;;5.75;1.52;;;;;;;-0.34;93.76;101824.78;5051463;28;20040;-63
2021/01/14 04:03:29;;;;;;;4.75;1.77;;;;;;;-0.43;93.83;101825.91;5056595;28;20604;-65
2021/01/14 04:05:55;;;;;;;5.75;1.60;;;;;;;-0.38;93.80;101834.59;5055364;28;20044;-65
2021/01/14 04:08:21;;;;;;;5.13;1.60;;;;;;;-0.45;93.75;101831.25;5056695;28;20068;-64
2021/01/14 04:10:48;;;;;;;4.10;1.23;;;;;;;-0.51;93.88;101831.41;5056516;28;20493;-65
2021/01/14 04:13:14;;;;;;;6.25;1.75;;;;;;;-0.56;93.99;101825.38;5058575;28;20110;-65
2021/01/14 04:15:40;;;;;;;11.38;1.92;;;;;;;-0.74;93.66;101827.59;5054846;28;20063;-65
2021/01/14 04:18:07;;;;;;;8.05;2.00;;;;;;;-0.72;94.05;101831.06;5057313;28;20049;-65
2021/01/14 04:20:33;;;;;;;6.68;1.90;;;;;;;-0.78;94.19;101831.22;5057310;28;20064;-63
2021/01/14 04:22:58;;;;;;;5.07;2.20;;;;;;;-0.83;94.00;101830.47;5065449;28;20056;-65
2021/01/14 04:25:30;;;;;;;5.88;2.03;;;;;;;-0.86;94.35;101832.34;5072978;22;20060;-64
2021/01/14 04:27:58;;;;;;;5.32;1.73;;;;;;;-0.81;94.51;101830.44;5059969;28;20528;-65
2021/01/14 04:30:24;;;;;;;7.82;1.88;;;;;;;-0.90;94.27;101828.88;5058860;28;20152;-65
2021/01/14 04:32:57;;;;;;;3.83;1.50;;;;;;;-0.96;94.42;101826.41;5062266;28;20056;-66
2021/01/14 04:35:24;;;;;;;5.65;1.48;;;;;;;-1.02;94.63;101821.28;5060429;28;20048;-64
2021/01/14 04:37:50;;;;;;;4.25;1.63;;;;;;;-1.03;94.71;101822.16;5062489;28;20049;-64
2021/01/14 04:40:16;;;;;;;5.40;1.90;;;;;;;-1.03;94.80;101817.78;5061816;28;20060;-65
2021/01/14 04:42:49;;;;;;;4.43;1.75;;;;;;;-1.04;94.97;101813.38;5061047;28;20094;-63
2021/01/14 04:45:19;;;;;;;7.88;1.83;;;;;;;-1.00;94.97;101817.69;5061588;28;20060;-66
2021/01/14 04:47:48;;;;;;;5.18;1.75;;;;;;;-0.93;94.99;101821.03;5062971;28;20044;-65
2021/01/14 04:50:16;;;;;;;5.97;2.03;;;;;;;-0.88;95.28;101824.44;5060763;28;20135;-64
2021/01/14 04:52:43;;;;;;;5.50;1.70;;;;;;;-0.91;95.11;101832.44;5062883;28;20048;-64
2021/01/14 04:55:13;;;;;;;5.60;2.33;;;;;;;-0.88;95.39;101829.72;5061283;28;20049;-64
2021/01/14 04:57:43;;;;;;;5.63;2.00;;;;;;;-0.88;95.65;101821.81;5060790;28;20123;-65
2021/01/14 05:00:10;;;;;;;;;;;;;;;-0.85;95.38;101827.00;5062012;28;20064;-65
2021/01/14 05:02:52;;;;;;;6.30;1.70;;;;;;;-0.91;95.43;101824.53;5059984;28;19978;-65
2021/01/14 05:05:21;;;;;;;6.88;1.70;;;;;;;-0.91;95.86;101832.44;5059338;28;20056;-64
2021/01/14 05:08:02;;;;;;;5.03;1.45;;;;;;;-0.94;95.70;101837.81;5061575;28;20981;-64
2021/01/14 05:13:24;;;;;;;6.53;1.67;;;;;;;-0.98;95.73;101838.78;5062693;23;20055;-64
2021/01/14 05:15:50;;;;;;;8.23;1.80;;;;;;;-1.00;95.88;101835.31;5055998;28;20068;-64
2021/01/14 05:18:17;;;;;;;6.13;1.90;;;;;;;-1.10;96.24;101835.53;5058192;28;20045;-64
2021/01/14 05:20:43;;;;;;;5.25;1.90;;;;;;;-1.15;96.26;101837.44;5055701;28;20060;-64
2021/01/14 05:23:11;;;;;;;6.85;1.95;;;;;;;-1.22;96.20;101841.13;5057358;28;20119;-64
2021/01/14 05:25:51;;;;;;;6.65;1.83;;;;;;;-1.24;96.20;101837.63;5058555;28;20064;-63
2021/01/14 05:28:17;;;;;;;9.20;1.88;;;;;;;-1.24;96.29;101842.91;5058978;28;20048;-64
2021/01/14 05:30:44;;;;;;;4.93;1.98;;;;;;;-1.27;96.50;101835.91;5054783;28;20508;-64
2021/01/14 05:33:14;;;;;;;7.43;2.22;;;;;;;-1.32;96.30;101839.59;5057517;28;20452;-65
2021/01/14 05:35:47;;;;;;;6.25;1.77;;;;;;;-1.36;96.62;101843.22;5056070;28;20053;-64
2021/01/14 05:38:27;;;;;;;5.03;1.80;;;;;;;-1.39;96.70;101849.44;5059043;28;20080;-64
2021/01/14 05:43:50;;;;;;;6.65;2.17;;;;;;;-1.55;96.92;101855.97;5060212;28;20106;-64
2021/01/14 05:46:17;;;;;;;9.07;2.20;;;;;;;-1.53;96.89;101855.03;5057576;28;20048;-65
2021/01/14 05:48:44;;;;;;;6.47;3.20;;;;;;;-1.46;97.15;101864.56;5057553;28;20064;-65
2021/01/14 05:51:16;;;;;;;9.48;2.58;;;;;;;-1.49;96.99;101864.59;5058300;28;20494;-64
2021/01/14 05:53:56;;;;;;;14.75;3.20;;;;;;;-1.49;97.12;101872.50;5056463;28;20048;-64
2021/01/14 05:56:29;;;;;;;9.90;3.30;;;;;;;-1.50;97.26;101870.81;5056894;28;20051;-65
2021/01/14 05:58:55;;;;;;;11.77;5.00;;;;;;;-1.54;97.38;101874.41;5058874;28;20478;-64
2021/01/14 06:01:24;;;;;;;7.32;3.33;;;;;;;-1.59;97.39;101876.25;5057835;28;20074;-64
2021/01/14 06:03:50;;;;;;;12.32;3.28;;;;;;;-1.45;97.35;101878.63;5057811;28;20131;-64
2021/01/14 06:06:17;;;;;;;9.90;4.25;;;;;;;-1.50;97.25;101878.72;5058069;28;20049;-65
2021/01/14 06:08:43;;;;;;;8.65;3.85;;;;;;;-1.47;97.23;101883.06;5058228;28;20060;-65
2021/01/14 06:11:20;;;;;;;13.55;3.78;;;;;;;-1.57;97.31;101881.53;5057477;28;20049;-64
2021/01/14 06:13:47;;;;;;;9.45;4.10;;;;;;;-1.64;97.23;101886.91;5058221;28;20056;-65
2021/01/14 06:16:13;;;;;;;14.00;4.10;;;;;;;-1.69;97.69;101886.16;5059690;28;20049;-65
2021/01/14 06:18:39;;;;;;;7.75;4.13;;;;;;;-1.69;97.83;101883.53;5060148;28;20064;-65
2021/01/14 06:21:05;;;;;;;9.65;3.92;;;;;;;-1.69;97.83;101887.91;5054990;28;20512;-65
2021/01/14 06:23:45;;;;;;;13.45;4.43;;;;;;;-1.73;97.66;101886.25;5059359;28;20106;-65
2021/01/14 06:26:12;;;;;;;11.75;4.63;;;;;;;-1.73;97.98;101883.63;5057948;28;20490;-65
2021/01/14 06:28:38;;;;;;;11.70;4.35;;;;;;;-1.79;97.49;101882.84;5057954;28;20053;-65
2021/01/14 06:31:07;;;;;;;10.43;4.35;;;;;;;-1.77;97.83;101881.06;5054968;28;20052;-65
2021/01/14 06:33:34;;;;;;;11.65;4.45;;;;;;;-1.78;97.96;101889.00;5056287;28;20041;-64
2021/01/14 06:36:07;;;;;;;12.48;4.43;;;;;;;-1.82;97.96;101885.53;5057987;28;20110;-66
2021/01/14 06:38:45;;;;;;;9.10;3.83;;;;;;;-1.77;97.85;101894.25;5057294;28;20056;-66
2021/01/14 06:41:16;;;;;;;14.25;4.68;;;;;;;-1.69;98.01;101894.09;5056746;28;20040;-64
2021/01/14 06:43:44;;;;;;;7.60;3.95;;;;;;;-1.70;98.29;101897.63;5057340;28;20048;-65
2021/01/14 06:46:15;;;;;;;9.65;4.00;;;;;;;-1.70;97.97;101899.41;5057752;28;20045;-65
2021/01/14 06:48:48;;;;;;;15.98;5.32;;;;;;;-1.69;97.96;101901.09;5057897;28;20425;-64
2021/01/14 06:51:30;;;;;;;9.00;3.70;;;;;;;-1.65;98.00;101900.16;5057828;28;20048;-66
2021/01/14 06:54:09;;;;;;;8.23;3.65;;;;;;;-1.65;98.18;101908.06;5055707;28;21047;-65
2021/01/14 06:56:47;;;;;;;11.70;4.15;;;;;;;-1.69;98.03;101898.47;5057832;28;20082;-65
2021/01/14 06:59:15;;;;;;;7.07;3.55;;;;;;;-1.71;97.81;101905.56;5066437;28;20052;-65
2021/01/14 07:01:46;;;;;;;10.23;3.58;;;;;;;-1.69;98.13;101909.91;5076140;23;20061;-66
2021/01/14 07:04:28;;;;;;;8.57;4.50;;;;;;;-1.72;98.14;101909.97;5036123;28;20124;-66
2021/01/14 07:07:13;;;;;;;12.07;4.00;;;;;;;-1.68;98.27;101911.66;5039267;28;20058;-65
2021/01/14 07:09:47;;;;;;;8.50;2.95;;;;;;;-1.66;98.04;101920.41;5038624;28;20099;-65
2021/01/14 07:12:15;;;;;;;12.88;4.05;;;;;;;-1.67;98.19;101913.38;5036550;28;20407;-64
2021/01/14 07:14:46;;;;;;;10.73;3.80;;;;;;;-1.67;98.13;101923.09;5037887;28;20044;-66
2021/01/14 07:17:18;;;;;;;7.70;3.80;;;;;;;-1.64;98.72;101923.00;5035872;28;20414;-64
2021/01/14 07:19:44;;;;;;;10.05;4.30;;;;;;;-1.61;98.17;101923.81;5036087;28;20119;-65
2021/01/14 07:22:13;;;;;;;7.88;3.53;;;;;;;-1.56;98.19;101930.78;5037624;28;20136;-65
2021/01/14 07:24:41;;;;;;;7.33;3.47;;;;;;;-1.53;98.24;101935.97;5039307;28;20053;-65
2021/01/14 07:27:10;;;;;;;9.52;3.75;;;;;;;-1.57;98.53;101945.75;5037550;28;20628;-64
2021/01/14 07:29:41;;;;;;;9.75;3.58;;;;;;;-1.53;98.35;101942.16;5036997;28;20072;-65
2021/01/14 07:32:07;;;;;;;8.90;4.28;;;;;;;-1.58;98.74;101944.00;5035619;28;20552;-65
2021/01/14 07:34:35;;;;;;;10.13;4.43;;;;;;;-1.53;98.59;101943.91;5035467;28;20053;-64
2021/01/14 07:37:02;;;;;;;10.02;4.20;;;;;;;-1.53;98.51;101939.50;5039468;28;20049;-64
2021/01/14 07:39:50;;;;;;;8.75;4.88;;;;;;;-1.47;98.39;101943.81;5035486;28;20049;-64
2021/01/14 07:42:23;;;;;;;8.82;4.90;;;;;;;-1.46;98.30;101954.34;5037684;28;20421;-64
2021/01/14 07:44:54;;;;;;;13.57;5.30;;;;;;;-1.44;98.17;101954.31;5038260;28;20402;-65
2021/01/14 07:47:28;;;;;;;22.65;10.70;;;;;;;-1.38;98.36;101948.00;5035564;28;20048;-64
2021/01/14 07:49:54;;;;;;;17.45;6.22;;;;;;;-1.44;98.15;101957.78;5038200;28;20060;-64
2021/01/14 07:52:31;;;;;;;11.55;5.45;;;;;;;-1.35;98.27;101955.88;5034078;28;20064;-65
2021/01/14 07:54:59;;;;;;;12.77;5.43;;;;;;;-1.35;98.55;101958.53;5037748;28;20049;-65
2021/01/14 07:57:29;;;;;;;12.38;5.30;;;;;;;-1.36;98.54;101962.06;5035703;28;20053;-65
2021/01/14 08:00:08;;;;;;;11.95;5.38;;;;;;;-1.34;98.27;101968.16;5032923;28;20049;-65
2021/01/14 08:03:07;;;;;;;8.90;4.90;;;;;;;-1.34;98.29;101968.16;5038176;28;20053;-63
2021/01/14 08:05:36;;;;;;;;;;;;;;;-1.30;98.43;101975.13;5043785;28;20053;-64
2021/01/14 08:08:23;;;;;;;8.45;4.28;;;;;;;-1.24;98.31;101981.16;5044752;28;19928;-64
2021/01/14 08:11:06;;;;;;;10.13;5.15;;;;;;;-1.19;98.41;101981.06;5046014;28;20509;-64
2021/01/14 08:13:32;;;;;;;13.25;5.13;;;;;;;-1.20;98.25;101986.38;5041198;28;20532;-64
2021/01/14 08:15:59;;;;;;;11.15;4.32;;;;;;;-1.14;98.15;101991.53;5040603;28;20060;-65
2021/01/14 08:18:25;;;;;;;15.68;5.25;;;;;;;-1.10;98.48;101983.50;5038050;28;20207;-65
2021/01/14 08:21:22;;;;;;;12.13;5.43;;;;;;;-1.08;98.17;101992.25;5042345;28;20059;-65
2021/01/14 08:23:49;;;;;;;16.30;6.75;;;;;;;-1.00;98.40;101993.84;5043748;28;20040;-65
2021/01/14 08:26:16;;;;;;;10.10;5.07;;;;;;;-0.99;98.38;101995.59;5044812;28;20049;-64
2021/01/14 08:28:42;;;;;;;13.38;5.70;;;;;;;-1.01;97.96;101992.13;5045719;28;20465;-65
2021/01/14 08:31:08;;;;;;;14.38;5.32;;;;;;;-0.84;97.93;101991.72;5043160;28;20060;-65
2021/01/14 08:33:34;;;;;;;14.98;5.28;;;;;;;-0.87;98.14;101995.31;5043030;28;20052;-64
2021/01/14 08:36:04;;;;;;;12.90;4.82;;;;;;;-0.84;98.07;102004.94;5041122;28;20483;-65
2021/01/14 08:38:31;;;;;;;10.80;4.60;;;;;;;-0.81;98.01;101995.19;5044158;28;20044;-65
2021/01/14 08:41:01;;;;;;;16.25;5.00;;;;;;;-0.85;97.73;102001.44;5046125;28;20041;-64
2021/01/14 08:43:40;;;;;;;12.75;5.32;;;;;;;-0.78;98.05;102002.16;5040983;28;20561;-65
2021/01/14 08:46:06;;;;;;;14.70;5.22;;;;;;;-0.69;97.98;102004.63;5045170;28;20053;-65
2021/01/14 08:48:32;;;;;;;9.60;4.80;;;;;;;-0.68;97.77;102010.75;5042961;28;20051;-65
2021/01/14 08:51:02;;;;;;;15.43;5.13;;;;;;;-0.60;98.01;102012.31;5043736;28;20498;-64
2021/01/14 08:53:31;;;;;;;7.30;4.70;;;;;;;-0.55;97.80;102006.94;5044413;28;20044;-66
2021/01/14 08:55:59;;;;;;;11.95;4.45;;;;;;;-0.63;97.55;102011.50;5043488;28;20056;-66
2021/01/14 09:01:17;;;;;;;10.70;3.67;;;;;;;-0.42;97.58;102018.94;5014071;23;20054;-64
2021/01/14 09:03:45;;;;;;;10.98;4.18;;;;;;;-0.47;97.71;102015.56;5004756;28;20053;-65
2021/01/14 09:06:11;;;;;;;16.02;4.40;;;;;;;-0.39;97.50;102008.28;5003114;28;20046;-65
2021/01/14 09:08:38;;;;;;;8.70;3.75;;;;;;;-0.29;97.48;102014.22;5004185;28;20058;-66
2021/01/14 09:11:05;;;;;;;8.27;3.67;;;;;;;-0.22;97.17;102012.28;5004179;28;20092;-65
2021/01/14 09:13:33;;;;;;;11.25;3.75;;;;;;;-0.25;97.15;102022.94;5003254;28;20109;-65
2021/01/14 09:16:07;;;;;;;9.57;3.40;;;;;;;-0.19;97.06;102021.03;5001643;28;20049;-66
2021/01/14 09:18:38;;;;;;;7.07;3.03;;;;;;;-0.10;96.86;102022.59;4998031;28;20070;-64
2021/01/14 09:21:04;;;;;;;11.07;3.80;;;;;;;-0.16;96.80;102020.09;4999466;28;20502;-65
2021/01/14 09:23:35;;;;;;;13.63;3.92;;;;;;;0.02;96.71;102023.19;4999351;28;20074;-65
2021/01/14 09:26:03;;;;;;;7.60;3.38;;;;;;;0.05;96.19;102028.41;5000534;28;20140;-65
2021/01/14 09:28:31;;;;;;;9.52;3.47;;;;;;;-0.02;96.00;102027.69;5000395;28;20058;-65
2021/01/14 09:31:00;;;;;;;8.55;3.38;;;;;;;-0.06;96.13;102026.91;4997553;28;20054;-65
2021/01/14 09:33:27;;;;;;;7.50;3.20;;;;;;;0.02;95.66;102024.06;4998196;28;20046;-66
2021/01/14 09:36:04;;;;;;;9.45;2.90;;;;;;;0.02;95.02;102028.50;4997643;28;20106;-64
2021/01/14 09:38:30;;;;;;;6.53;2.80;;;;;;;-0.01;94.79;102027.63;4996035;28;20050;-66
2021/01/14 09:40:57;;;;;;;9.77;2.80;;;;;;;-0.01;94.54;102032.94;4995684;28;20046;-66
2021/01/14 09:43:24;;;;;;;6.03;2.50;;;;;;;-0.13;94.65;102035.00;4995154;28;20050;-65
2021/01/14 09:45:51;;;;;;;9.55;2.80;;;;;;;-0.04;94.41;102046.25;4995292;28;20046;-65
2021/01/14 09:48:20;;;;;;;7.47;2.83;;;;;;;-0.01;94.20;102045.31;4996641;28;20108;-64
2021/01/14 09:50:45;;;;;;;9.80;2.63;;;;;;;-0.05;94.36;102041.84;4995558;28;20058;-64
2021/01/14 09:53:12;;;;;;;9.68;2.92;;;;;;;-0.03;94.27;102037.41;4994960;28;20184;-65
2021/01/14 09:55:40;;;;;;;11.85;2.97;;;;;;;0.03;94.11;102043.44;4994567;28;20046;-66
2021/01/14 09:58:06;;;;;;;7.80;2.35;;;;;;;-0.06;93.93;102047.19;4997468;28;20051;-65
2021/01/14 10:00:35;;;;;;;5.45;2.50;;;;;;;-0.09;93.59;102042.84;4999353;28;20451;-65
2021/01/14 10:03:06;;;;;;;10.05;2.88;;;;;;;0.04;93.21;102045.19;5002002;28;20451;-66
2021/01/14 10:05:33;;;;;;;8.13;2.80;;;;;;;0.02;93.49;102047.00;4999526;28;20403;-64
2021/01/14 10:08:01;;;;;;;6.88;2.78;;;;;;;0.03;93.27;102038.16;5000962;28;20054;-65
2021/01/14 10:10:32;;;;;;;9.85;2.97;;;;;;;0.09;92.92;102040.63;4999249;28;20399;-65
2021/01/14 10:12:58;;;;;;;6.47;2.50;;;;;;;0.19;93.19;102044.78;4996817;28;20443;-65
2021/01/14 10:15:25;;;;;;;6.30;2.42;;;;;;;0.29;91.71;102043.63;4994802;28;20105;-66
2021/01/14 10:17:50;;;;;;;7.20;2.83;;;;;;;0.30;91.69;102039.22;4997953;28;20068;-66
2021/01/14 10:20:16;;;;;;;10.18;2.72;;;;;;;0.31;91.48;102036.53;4997286;28;20077;-66
2021/01/14 10:22:47;;;;;;;4.97;2.47;;;;;;;0.39;90.65;102030.16;4999355;28;20045;-65
2021/01/14 10:25:14;;;;;;;8.35;2.95;;;;;;;0.38;90.75;102029.25;4992904;28;20046;-65
2021/01/14 10:27:41;;;;;;;7.18;2.60;;;;;;;0.40;90.85;102026.56;4998686;28;20499;-65
2021/01/14 10:30:17;;;;;;;6.05;2.80;;;;;;;0.40;90.25;102023.94;4996662;28;20062;-65
2021/01/14 10:32:44;;;;;;;7.90;2.78;;;;;;;0.47;90.23;102020.19;4993427;28;20140;-66
2021/01/14 10:35:23;;;;;;;7.45;3.05;;;;;;;0.60;90.10;102024.25;4995716;28;20068;-65
2021/01/14 10:37:49;;;;;;;9.73;3.70;;;;;;;0.64;90.20;102019.75;4999250;28;20046;-65
2021/01/14 10:40:20;;;;;;;9.27;2.80;;;;;;;0.59;89.19;102019.88;4998777;28;20072;-65
2021/01/14 10:42:49;;;;;;;8.77;3.20;;;;;;;0.66;88.66;102021.44;4997686;28;20058;-65
2021/01/14 10:45:23;;;;;;;8.60;3.45;;;;;;;0.74;88.35;102015.03;4999293;28;20053;-65
2021/01/14 10:47:50;;;;;;;8.68;3.97;;;;;;;0.74;88.06;102013.28;4999263;28;20530;-65
2021/01/14 10:50:22;;;;;;;6.57;3.25;;;;;;;0.79;87.67;102011.34;4997928;28;20053;-66
2021/01/14 10:52:55;;;;;;;10.02;3.90;;;;;;;0.77;87.92;102009.66;4996860;28;20125;-64
2021/01/14 10:55:21;;;;;;;7.72;3.72;;;;;;;0.78;86.94;102004.31;4998417;28;20078;-65
2021/01/14 10:57:52;;;;;;;7.93;3.65;;;;;;;0.73;86.98;102005.38;5001443;28;20600;-66
2021/01/14 11:00:20;;;;;;;8.95;3.58;;;;;;;0.72;86.25;102009.78;4997377;28;20054;-66
2021/01/14 11:02:46;;;;;;;10.40;3.72;;;;;;;0.74;86.37;102009.72;4998001;28;20061;-65
2021/01/14 11:05:13;;;;;;;9.32;3.88;;;;;;;0.73;85.61;102008.00;4996873;28;20499;-65
2021/01/14 11:07:39;;;;;;;10.48;3.90;;;;;;;0.67;85.11;102007.25;4999882;28;20073;-65
2021/01/14 11:10:09;;;;;;;9.70;4.35;;;;;;;0.61;85.74;102020.69;5000078;28;20086;-65
2021/01/14 11:12:35;;;;;;;7.15;3.75;;;;;;;0.60;86.08;102008.34;5000645;28;20065;-65
2021/01/14 11:15:02;;;;;;;8.10;3.50;;;;;;;0.73;85.39;102008.00;4997467;28;20042;-65
2021/01/14 11:17:28;;;;;;;9.75;3.70;;;;;;;0.79;85.95;102011.34;4997577;28;20069;-63
2021/01/14 11:19:54;;;;;;;10.27;3.85;;;;;;;0.87;85.61;102019.94;4999058;28;20095;-66
2021/01/14 11:22:20;;;;;;;7.05;3.72;;;;;;;0.95;85.19;102022.38;4999439;28;20054;-65
2021/01/14 11:24:52;;;;;;;8.45;4.40;;;;;;;0.99;84.53;102015.22;4998707;28;20385;-66
2021/01/14 11:27:18;;;;;;;7.82;4.00;;;;;;;0.97;84.37;102009.94;4994235;28;20053;-64
2021/01/14 11:29:44;;;;;;;10.63;4.03;;;;;;;0.96;84.51;102002.03;4995523;28;20138;-64
2021/01/14 11:32:11;;;;;;;6.35;3.30;;;;;;;0.98;84.40;102008.16;4994623;28;21402;-66
2021/01/14 11:34:37;;;;;;;9.73;4.07;;;;;;;1.17;84.22;101998.72;4994922;28;20053;-65
2021/01/14 11:37:02;;;;;;;7.78;3.80;;;;;;;1.10;84.59;101996.31;4999131;28;20402;-64
2021/01/14 11:39:28;;;;;;;10.02;4.45;;;;;;;1.02;84.37;102002.72;4997884;28;20518;-64
2021/01/14 11:41:54;;;;;;;7.78;3.92;;;;;;;1.10;84.30;101994.50;4997121;28;20081;-65
2021/01/14 11:44:20;;;;;;;10.48;4.28;;;;;;;0.98;84.49;102002.84;4994540;28;20042;-65